Westport, Connecticut
Current Conditions -  °F | °C
As of 12:52 PM on Tuesday 21 Oct 2014 (Local Time) from KBDR Reporting Station
Few Clouds Few Clouds  
Wind Chill: 67°   Ceiling: Unl
Heat Index: 67°   Visibility: 10mi
Dew Point: 51°   Wind: 9mph
Humidity: 57%   Direction: 90°E
Pressure: 29.88"   Gusts: NA
Location:  41.14°N, 73.36°W
Report Text: KBDR 211652Z 09008KT 10SM FEW055 19/11 A2988 RMK AO2 SLP118 T01940106
Loading
Personal Weather Stations






























Interactive Weather Map
Tropical Storm Tracking
New forecast layout! Learn more

10-Day Weather Forecast

Advertisements
Track Severe Weather on mobile